Change Of Latitude — WDF6082 — position and weather

sailwx.info

Track history (hours):
 
Tides and Currents Weather Stations Pressure Air Temp Water Temp Dewpoint Dewpoint Depression Visibility Wind Speed Wind Dir Waves Ship Positions

Change Of Latitude

Owner: Donrah LLC, Bellingham, WA. More information available from US FCC via Universal Licensing System and Coast Guard Vessel Documentation Center.

Last reported at 2016-May-23 21:32 UTC. Time now 2016-May-24 05:58 UTC.
Position N 47°56' W 122°21'.

Length 15 m.

Type: Pleasure craft. MMSI: 367470440.

Date/timePositionNaut miles runAvg speedWind from/ knotsBaromVisibWave heightAir tempDewpointWater temp
2016-May-23 21:32N 47°56' W 122°21'8 8.5
2016-May-23 20:33N 47°48' W 122°24'9 8.7
2016-May-23 19:33N 47°40' W 122°27'5 0.3
2016-May-23 00:27N 47°37' W 122°21'7 7.5
2016-May-22 23:33N 47°33' W 122°29'0 0.0
2016-May-22 20:31N 47°33' W 122°29'7 7.5
2016-May-22 19:33N 47°40' W 122°29'8 8.4
2016-May-22 18:33N 47°48' W 122°28'8 7.9
2016-May-22 17:32N 47°56' W 122°33'40 1.5
2016-May-21 15:33N 48°34' W 122°51'  
2016-May-15 20:11N 48°35' W 122°57'5 7.7
2016-May-15 19:31N 48°35' W 122°49'6 0.2
2016-May-14 17:28N 48°36' W 122°40'8 8.3
2016-May-14 16:33N 48°35' W 122°52'  
Track history (hours):
 
Tides and Currents Weather Stations Pressure Air Temp Water Temp Dewpoint Dewpoint Depression Visibility Wind Speed Wind Dir Waves Ship Positions

Change Of Latitude

Owner: Donrah LLC, Bellingham, WA. More information available from US FCC via Universal Licensing System and Coast Guard Vessel Documentation Center.

Last reported at 2016-May-23 21:32 UTC. Time now 2016-May-24 05:58 UTC.
Position N 47°56' W 122°21'.

Length 15 m.

Type: Pleasure craft. MMSI: 367470440.

Date/timePositionNaut miles runAvg speedWind from/ knotsBaromVisibWave heightAir tempDewpointWater temp
2016-May-23 21:32N 47°56' W 122°21'8 8.5
2016-May-23 20:33N 47°48' W 122°24'9 8.7
2016-May-23 19:33N 47°40' W 122°27'5 0.3
2016-May-23 00:27N 47°37' W 122°21'7 7.5
2016-May-22 23:33N 47°33' W 122°29'0 0.0
2016-May-22 20:31N 47°33' W 122°29'7 7.5
2016-May-22 19:33N 47°40' W 122°29'8 8.4
2016-May-22 18:33N 47°48' W 122°28'8 7.9
2016-May-22 17:32N 47°56' W 122°33'40 1.5
2016-May-21 15:33N 48°34' W 122°51'  
2016-May-15 20:11N 48°35' W 122°57'5 7.7
2016-May-15 19:31N 48°35' W 122°49'6 0.2
2016-May-14 17:28N 48°36' W 122°40'8 8.3
2016-May-14 16:33N 48°35' W 122°52'  

Dump ship's entire track history